Aviation Digital Data Service (ADDS)

Output produced by METARs form (0554 UTC 08 December 2016)
found at http://aviationweather.gov/adds/metars/
 
KINT 080532Z 0806/0906 VRB03KT P6SM OVC050 
     FM080700 VRB03KT P6SM OVC025 
     TEMPO 0809/0813 5SM -SHRA OVC015 
     FM081300 33011KT P6SM BKN050 
     FM081500 33011G20KT P6SM OVC100 
     FM090000 31007KT P6SM SKC